• Join FlightAware (Why Join?)
  • Login
  • US Flag 
07:44AM EDT


 

Airport Tracker/Info


-or-


 

Live Flight TrackerFlight Track Log ✈ FLG4159 ✈ 19-Aug-2013 ✈ KMSP - KDLH

Flight Track Log - Related Links

Times and Time Zones

All times are in EDT time to prevent confusion due to time zone crossing. See the FLG4159 flight status page for this flight to view local times or setup timezone preferences in your user account.

Time Position Orientation Groundspeed Altitude Reporting Facility
EDT Latitude Longitude Course Direction KTS MPH feet Rate Location/Type
10:59PM 44.8833 -93.1500 41° Northeast 181 208 2,600  Level Minneapolis TRACON
11:01PM 44.9483 -93.0672 42° Northeast 246 283 5,700 2,220 Climbing Minneapolis Center
11:02PM 45.1800 -93.3013 45° Northeast  Level FlightAware Approximate
11:02PM 45.0228 -93.0347 17° North 280 322 8,200  Level Minneapolis Center
11:03PM 45.2427 -93.2128 45° Northeast  Level FlightAware Approximate
11:03PM 45.1028 -92.9981 18° North 302 348 10,600  Level Minneapolis Center
11:04PM 45.3051 -93.1238 45° Northeast  Level FlightAware Approximate
11:04PM 45.1931 -92.9575 18° North 345 397 11,900  Level Minneapolis Center
11:05PM 45.3645 -93.0444 41° Northeast  Level FlightAware Approximate
11:05PM 45.2881 -92.9144 18° North 360 414 13,000  Level Minneapolis Center
11:06PM 45.3936 -92.8658 18° North 397 457 13,000  Level Minneapolis Center
11:07PM 45.5025 -92.8172 17° North 409 471 13,000  Level Minneapolis Center
11:08PM 45.6328 -92.7569 18° North 412 474 13,000  Level Minneapolis Center
11:09PM 45.7411 -92.7086 17° North 409 471 13,000  Level Minneapolis Center
11:10PM 45.8475 -92.6589 18° North 404 465 13,000  Level Minneapolis Center
11:11PM 45.9753 -92.6042 17° North 401 461 13,000  Level Minneapolis Center
11:12PM 46.0808 -92.5533 18° North 399 459 13,000 -60 Level Minneapolis Center
11:13PM 46.2147 -92.4906 18° North 404 465 12,900 -660 Descending Minneapolis Center
11:14PM 46.3158 -92.4414 19° North 389 448 11,700 -1,320 Descending Minneapolis Center
11:15PM 46.4000 -92.4022 18° North 336 387 10,300 -1,320 Descending Minneapolis Center
11:16PM 46.4764 -92.3656 18° North 302 348 9,100 -1,200 Descending Minneapolis Center
11:17PM 46.5528 -92.3308 17° North 291 335 7,900 -1,440 Descending Minneapolis Center
11:18PM 46.6269 -92.2956 18° North 286 329 6,200 -1,920 Descending Minneapolis Center
11:19PM 46.7167 -92.2878 North 278 320 4,000 -1,620 Descending Minneapolis Center
11:21PM 46.7883 -92.2900 359° North 270 311 3,000 -660 Descending Minneapolis Center
11:22PM 46.8358 -92.2956 355° North 219 252 2,700 -720 Descending Minneapolis Center
11:23PM 46.8425 -92.2367 81° East 176 203 1,600 -1,140 Descending Minneapolis Center